KJSO

Cherokee County Airport

Jacksonville, Texas, USA
METAR KJSO 252235Z AUTO 00000KT 10SM CLR 23/19 A2991 RMK AO2 T02350195
Observed Flight Rules
May-25 @ 22:35 UTC (7 minutes ago) Visual Flight Rules
Visibility Clouds
10 miles
  • Clear skies
Temperatures Readings
Current 24°C / 75°F
Dewpoint 20°C / 68°F
Humidity 78%
Altimeter 29.91" Hg
Pressure 1013 hPa
Elevation 206
METAR KJSO 252235Z AUTO 00000KT 10SM CLR 23/19 A2991 RMK AO2 T02350195
Observed Flight Rules
May-25 @ 22:35 UTC
(7 minutes ago)
VFR
Clouds
  • Clear skies
Temperature Dewpoint
24°C / 75°F 20°C / 68°F
Humidity Altimeter Pressure
78% 29.91" Hg 1013 hPa